Time;durP1;ratioP1;P1;durP2;ratioP2;P2;SDS_P1;SDS_P2;PMS_P1;PMS_P2;Temp;Humidity;BMP_temperature;BMP_pressure;BME280_temperature;BME280_humidity;BME280_pressure;Samples;Min_cycle;Max_cycle;Signal;HPM_P1;HPM_P2
2022/07/14 00:00:55;;;;;;;11.85;3.78;;;21.50;99.90;;;;;;5107390;28;20027;-70
2022/07/14 00:03:21;;;;;;;17.00;4.63;;;21.30;99.90;;;;;;5102016;28;20091;-71
2022/07/14 00:05:46;;;;;;;15.23;3.92;;;21.30;99.90;;;;;;5093753;28;20028;-71
2022/07/14 00:08:12;;;;;;;12.27;4.68;;;21.30;99.90;;;;;;5093578;28;20484;-70
2022/07/14 00:10:38;;;;;;;11.93;4.15;;;21.30;99.90;;;;;;5094804;28;20380;-71
2022/07/14 00:13:03;;;;;;;11.40;4.22;;;21.30;99.90;;;;;;5093464;28;20443;-71
2022/07/14 00:15:31;;;;;;;10.07;3.90;;;21.30;99.90;;;;;;5094408;28;20104;-70
2022/07/14 00:17:58;;;;;;;12.07;3.88;;;21.30;99.90;;;;;;5086088;28;20496;-70
2022/07/14 00:20:24;;;;;;;11.95;4.32;;;21.30;99.90;;;;;;5095695;28;20086;-71
2022/07/14 00:22:50;;;;;;;11.27;4.28;;;21.40;99.90;;;;;;5094408;28;20028;-71
2022/07/14 00:25:16;;;;;;;11.38;3.50;;;21.30;99.90;;;;;;5094435;28;20086;-70
2022/07/14 00:27:43;;;;;;;8.02;3.40;;;21.40;99.90;;;;;;5094137;28;20047;-70
2022/07/14 00:30:09;;;;;;;10.48;3.65;;;21.30;99.90;;;;;;5094042;28;20027;-71
2022/07/14 00:32:35;;;;;;;12.07;4.15;;;21.10;99.90;;;;;;5094560;28;20028;-71
2022/07/14 00:35:02;;;;;;;13.77;4.20;;;21.10;99.90;;;;;;5093911;28;20031;-71
2022/07/14 00:37:28;;;;;;;12.77;4.10;;;21.10;99.90;;;;;;5094293;28;20032;-70
2022/07/14 00:39:56;;;;;;;11.90;4.15;;;21.20;99.90;;;;;;5093853;28;20027;-71
2022/07/14 00:42:34;;;;;;;11.30;3.55;;;21.30;99.90;;;;;;5093534;28;20024;-70
2022/07/14 00:45:10;;;;;;;11.82;3.78;;;21.20;99.90;;;;;;5092858;28;20085;-71
2022/07/14 00:47:36;;;;;;;13.65;4.10;;;21.20;99.90;;;;;;5092731;28;20448;-71
2022/07/14 00:50:05;;;;;;;11.68;3.90;;;21.20;99.90;;;;;;5097286;28;20024;-71
2022/07/14 00:52:31;;;;;;;11.57;4.00;;;21.20;99.90;;;;;;5092971;28;20026;-71
2022/07/14 00:54:58;;;;;;;6.57;3.35;;;21.20;99.90;;;;;;5092893;28;20396;-71
2022/07/14 00:57:24;;;;;;;12.57;3.58;;;21.10;99.90;;;;;;5093927;28;20185;-71
2022/07/14 00:59:49;;;;;;;13.60;4.63;;;21.10;99.90;;;;;;5092836;28;20091;-70
2022/07/14 01:02:17;;;;;;;10.95;3.75;;;21.10;99.90;;;;;;5093800;28;20024;-70
2022/07/14 01:04:45;;;;;;;11.80;3.78;;;21.10;99.90;;;;;;5091668;28;20085;-71
2022/07/14 01:07:12;;;;;;;14.80;4.75;;;21.10;99.90;;;;;;5093426;28;20028;-70
2022/07/14 01:09:38;;;;;;;9.18;3.72;;;21.10;99.90;;;;;;5093021;28;20035;-71
2022/07/14 01:12:04;;;;;;;13.10;4.13;;;21.10;99.90;;;;;;5091400;28;20016;-70
2022/07/14 01:14:30;;;;;;;9.25;3.53;;;21.10;99.90;;;;;;5091889;28;20493;-70
2022/07/14 01:16:57;;;;;;;16.23;4.07;;;21.10;99.90;;;;;;5092632;28;20102;-70
2022/07/14 01:19:23;;;;;;;9.35;3.45;;;21.10;99.90;;;;;;5104579;28;20020;-71
2022/07/14 01:21:51;;;;;;;11.07;3.53;;;21.00;99.90;;;;;;5104649;28;20028;-71
2022/07/14 01:24:17;;;;;;;11.02;3.50;;;20.90;99.90;;;;;;5093266;28;20040;-70
2022/07/14 01:26:43;;;;;;;11.65;3.38;;;20.70;99.90;;;;;;5092751;28;20042;-70
2022/07/14 01:29:09;;;;;;;7.50;3.53;;;20.60;99.90;;;;;;5093391;28;20039;-70
2022/07/14 01:31:34;;;;;;;16.90;4.30;;;20.60;99.90;;;;;;5093473;28;20465;-70
2022/07/14 01:34:00;;;;;;;14.63;3.80;;;20.40;99.90;;;;;;5093579;28;20016;-71
2022/07/14 01:36:26;;;;;;;12.82;4.00;;;20.30;99.90;;;;;;5093075;28;20024;-70
2022/07/14 01:38:52;;;;;;;11.00;3.38;;;20.30;99.90;;;;;;5092746;28;20044;-70
2022/07/14 01:41:20;;;;;;;11.15;3.75;;;20.30;99.90;;;;;;5093185;28;20024;-70
2022/07/14 01:43:45;;;;;;;13.43;4.18;;;20.40;99.90;;;;;;5093294;28;20385;-70
2022/07/14 01:46:11;;;;;;;14.52;4.30;;;20.40;99.90;;;;;;5092846;28;20017;-70
2022/07/14 01:48:37;;;;;;;9.95;4.13;;;20.40;99.90;;;;;;5093205;28;20024;-70
2022/07/14 01:51:02;;;;;;;9.52;3.58;;;20.50;99.90;;;;;;5092892;28;20034;-70
2022/07/14 01:53:28;;;;;;;11.55;3.88;;;20.40;99.90;;;;;;5092604;28;20036;-70
2022/07/14 01:55:54;;;;;;;12.02;4.38;;;20.30;99.90;;;;;;5092910;28;20473;-70
2022/07/14 01:58:19;;;;;;;12.27;4.05;;;20.30;99.90;;;;;;5092840;28;20079;-70
2022/07/14 02:01:39;;;;;;;13.75;3.92;;;20.30;99.90;;;;;;5092466;28;20107;-70
2022/07/14 02:03:31;;;;;;;17.80;4.22;;;20.40;99.90;;;;;;5087863;28;20049;-70
2022/07/14 02:05:56;;;;;;;12.30;3.78;;;20.30;99.90;;;;;;5089546;28;20571;-70
2022/07/14 02:08:22;;;;;;;9.32;3.63;;;20.40;99.90;;;;;;5092995;28;20024;-70
2022/07/14 02:13:32;;;;;;;12.40;3.90;;;20.50;99.90;;;;;;5092268;28;20178;-70
2022/07/14 02:15:57;;;;;;;15.77;4.05;;;20.50;99.90;;;;;;5088508;28;20111;-70
2022/07/14 02:18:23;;;;;;;11.13;3.80;;;20.50;99.90;;;;;;5092788;28;20469;-70
2022/07/14 02:20:48;;;;;;;13.18;3.70;;;20.50;99.90;;;;;;5086412;28;20029;-70
2022/07/14 02:23:14;;;;;;;14.63;3.80;;;20.50;99.90;;;;;;5078775;28;20023;-70
2022/07/14 02:25:39;;;;;;;10.73;4.47;;;20.50;99.90;;;;;;5092654;28;20020;-70
2022/07/14 02:28:06;;;;;;;12.50;4.00;;;20.40;99.90;;;;;;5090240;28;20473;-70
2022/07/14 02:30:32;;;;;;;10.38;3.70;;;20.00;99.90;;;;;;5091583;28;20070;-70
2022/07/14 02:32:57;;;;;;;11.60;4.10;;;20.00;99.90;;;;;;5092596;28;20032;-70
2022/07/14 02:35:23;;;;;;;10.27;4.57;;;20.00;99.90;;;;;;5091751;28;20036;-70
2022/07/14 02:37:48;;;;;;;10.48;3.85;;;19.90;99.90;;;;;;5090054;28;20488;-70
2022/07/14 02:40:14;;;;;;;11.38;4.10;;;20.10;99.90;;;;;;5092373;28;20388;-70
2022/07/14 02:42:40;;;;;;;8.88;3.78;;;20.20;99.90;;;;;;5092785;28;20093;-71
2022/07/14 02:45:06;;;;;;;7.20;3.38;;;20.20;99.90;;;;;;5084101;28;20064;-70
2022/07/14 02:47:32;;;;;;;12.15;3.60;;;19.90;99.90;;;;;;5072392;28;20021;-70
2022/07/14 02:49:57;;;;;;;10.93;3.88;;;20.00;99.90;;;;;;5088745;28;20039;-70
2022/07/14 02:52:23;;;;;;;10.55;3.72;;;20.00;99.90;;;;;;5092354;28;20020;-71
2022/07/14 02:54:48;;;;;;;11.00;4.28;;;20.00;99.90;;;;;;5092402;28;20032;-70
2022/07/14 02:57:14;;;;;;;11.68;4.07;;;20.10;99.90;;;;;;5091113;28;20123;-70
2022/07/14 02:59:41;;;;;;;15.63;4.40;;;20.10;99.90;;;;;;5092465;28;20028;-70
2022/07/14 03:02:08;;;;;;;11.13;3.33;;;20.00;99.90;;;;;;5102461;28;20024;-69
2022/07/14 03:04:33;;;;;;;13.40;3.58;;;19.80;99.90;;;;;;5094701;28;20035;-70
2022/07/14 03:06:59;;;;;;;15.70;3.25;;;19.80;99.90;;;;;;5095203;28;20032;-71
2022/07/14 03:09:26;;;;;;;11.30;3.65;;;19.70;99.90;;;;;;5096019;28;20031;-70
2022/07/14 03:11:51;;;;;;;9.80;3.90;;;19.70;99.90;;;;;;5095680;28;20055;-70
2022/07/14 03:14:17;;;;;;;10.43;3.50;;;19.70;99.90;;;;;;5095752;28;20060;-70
2022/07/14 03:16:42;;;;;;;17.15;4.53;;;19.50;99.90;;;;;;5096134;28;20023;-70
2022/07/14 03:19:08;;;;;;;13.23;4.00;;;19.40;99.90;;;;;;5094924;28;20101;-70
2022/07/14 03:21:34;;;;;;;12.77;3.83;;;19.40;99.90;;;;;;5095429;28;20012;-70
2022/07/14 03:24:00;;;;;;;10.88;3.38;;;19.50;99.90;;;;;;5095771;28;20036;-70
2022/07/14 03:26:25;;;;;;;18.25;5.40;;;19.40;99.90;;;;;;5094858;28;20119;-70
2022/07/14 03:28:51;;;;;;;15.57;4.45;;;19.60;99.90;;;;;;5095662;28;20080;-70
2022/07/14 03:31:16;;;;;;;13.80;4.07;;;19.60;99.90;;;;;;5107005;28;20020;-70
2022/07/14 03:33:42;;;;;;;12.82;3.90;;;19.60;99.90;;;;;;5094890;28;20077;-70
2022/07/14 03:36:08;;;;;;;14.55;4.32;;;19.50;99.90;;;;;;5094131;28;20020;-70
2022/07/14 03:38:33;;;;;;;14.63;4.50;;;19.50;99.90;;;;;;5094520;28;20093;-70
2022/07/14 03:41:02;;;;;;;12.23;4.75;;;19.50;99.90;;;;;;5095176;28;20431;-70
2022/07/14 03:43:28;;;;;;;12.85;4.13;;;19.50;99.90;;;;;;5094870;28;20028;-70
2022/07/14 03:45:54;;;;;;;11.88;4.90;;;19.50;99.90;;;;;;5094673;28;20469;-70
2022/07/14 03:48:21;;;;;;;16.88;4.13;;;19.60;99.90;;;;;;5095275;28;20039;-70
2022/07/14 03:50:48;;;;;;;12.38;4.43;;;19.60;99.90;;;;;;5094410;28;20408;-70
2022/07/14 03:53:14;;;;;;;10.68;3.75;;;19.50;99.90;;;;;;5094058;28;20027;-70
2022/07/14 03:55:41;;;;;;;10.13;4.32;;;19.50;99.90;;;;;;5094011;28;20028;-70
2022/07/14 03:58:07;;;;;;;12.00;4.05;;;19.60;99.90;;;;;;5091960;28;20047;-70
2022/07/14 04:00:33;;;;;;;10.27;3.92;;;19.60;99.90;;;;;;5094568;28;20024;-70
2022/07/14 04:02:59;;;;;;;13.10;4.72;;;19.60;99.90;;;;;;5095023;28;20027;-70
2022/07/14 04:05:25;;;;;;;14.45;4.53;;;19.50;99.90;;;;;;5094015;28;20349;-70
2022/07/14 04:07:50;;;;;;;13.25;4.65;;;19.50;99.90;;;;;;5093808;28;20050;-70
2022/07/14 04:10:16;;;;;;;11.70;4.20;;;19.50;99.90;;;;;;5093762;28;20036;-70
2022/07/14 04:12:42;;;;;;;13.48;4.53;;;19.40;99.90;;;;;;5074422;28;20381;-70
2022/07/14 04:15:08;;;;;;;14.52;5.10;;;19.40;99.90;;;;;;5073238;28;20029;-70
2022/07/14 04:17:34;;;;;;;15.40;4.75;;;19.30;99.90;;;;;;5074681;28;20024;-70
2022/07/14 04:19:59;;;;;;;16.63;4.68;;;19.30;99.90;;;;;;5082273;28;20046;-70
2022/07/14 04:22:25;;;;;;;13.23;4.38;;;19.30;99.90;;;;;;5094443;28;20016;-70
2022/07/14 04:24:51;;;;;;;12.98;3.78;;;19.30;99.90;;;;;;5093787;28;20477;-70
2022/07/14 04:27:16;;;;;;;12.48;4.20;;;19.30;99.90;;;;;;5093721;28;20059;-70
2022/07/14 04:29:42;;;;;;;12.77;4.65;;;19.20;99.90;;;;;;5108349;28;20026;-70
2022/07/14 04:32:08;;;;;;;17.88;4.35;;;19.20;99.90;;;;;;5114921;28;20506;-70
2022/07/14 04:34:34;;;;;;;11.57;4.03;;;19.20;99.90;;;;;;5114462;28;20102;-69
2022/07/14 04:37:00;;;;;;;11.80;4.10;;;19.00;99.90;;;;;;5093012;28;20024;-70
2022/07/14 04:39:26;;;;;;;15.57;5.15;;;19.00;99.90;;;;;;5094212;28;20024;-70
2022/07/14 04:41:52;;;;;;;21.52;5.38;;;19.00;99.90;;;;;;5093994;28;20017;-70
2022/07/14 04:44:17;;;;;;;10.82;4.78;;;19.00;99.90;;;;;;5093000;28;20035;-70
2022/07/14 04:46:43;;;;;;;18.17;4.80;;;19.10;99.90;;;;;;5094189;28;20468;-70
2022/07/14 04:52:02;;;;;;;13.45;5.28;;;19.10;99.90;;;;;;5074128;28;20042;-70
2022/07/14 04:54:31;;;;;;;14.77;5.03;;;19.10;99.90;;;;;;5079256;28;20024;-70
2022/07/14 04:56:57;;;;;;;13.55;5.30;;;19.20;99.90;;;;;;5093842;28;20511;-70
2022/07/14 04:59:22;;;;;;;14.13;5.63;;;19.20;99.90;;;;;;5094056;28;20028;-69
2022/07/14 05:01:48;;;;;;;15.50;5.00;;;19.10;99.90;;;;;;5092562;28;20031;-70
2022/07/14 05:04:14;;;;;;;15.32;5.78;;;19.10;99.90;;;;;;5094215;28;20028;-70
2022/07/14 05:06:40;;;;;;;16.05;5.40;;;19.10;99.90;;;;;;5092678;28;20028;-70
2022/07/14 05:09:05;;;;;;;15.20;5.78;;;19.10;99.90;;;;;;5093535;28;20076;-70
2022/07/14 05:11:31;;;;;;;21.15;6.50;;;19.00;99.90;;;;;;5092793;28;20036;-70
2022/07/14 05:13:57;;;;;;;18.08;5.72;;;19.00;99.90;;;;;;5093937;28;20031;-70
2022/07/14 05:16:23;;;;;;;13.88;4.43;;;19.00;99.90;;;;;;5093460;28;20031;-69
2022/07/14 05:18:48;;;;;;;17.08;5.53;;;19.00;99.90;;;;;;5094161;28;20448;-70
2022/07/14 05:21:14;;;;;;;19.88;6.18;;;19.00;99.90;;;;;;5093301;28;20063;-70
2022/07/14 05:23:41;;;;;;;13.25;5.82;;;19.10;99.90;;;;;;5093366;28;20043;-70
2022/07/14 05:26:11;;;;;;;18.95;6.20;;;19.10;99.90;;;;;;5093920;28;20024;-70
2022/07/14 05:28:36;;;;;;;19.58;5.38;;;19.20;99.90;;;;;;5092877;28;20028;-70
2022/07/14 05:31:02;;;;;;;19.55;5.55;;;19.20;99.90;;;;;;5093338;28;20098;-70
2022/07/14 05:33:28;;;;;;;18.27;5.53;;;19.20;99.90;;;;;;5093339;28;20430;-70
2022/07/14 05:35:55;;;;;;;16.45;4.95;;;19.20;99.90;;;;;;5092968;28;20048;-70
2022/07/14 05:38:21;;;;;;;15.57;5.55;;;19.30;99.90;;;;;;5089686;28;20056;-70
2022/07/14 05:40:47;;;;;;;17.20;5.68;;;19.30;99.90;;;;;;5074719;28;20109;-70
2022/07/14 05:43:14;;;;;;;17.00;5.63;;;19.30;99.90;;;;;;5072652;28;20032;-70
2022/07/14 05:45:39;;;;;;;17.20;6.25;;;19.40;99.90;;;;;;5074520;28;20039;-70
2022/07/14 05:48:06;;;;;;;16.85;5.88;;;19.40;99.90;;;;;;5090995;28;20461;-70
2022/07/14 05:50:31;;;;;;;25.83;5.93;;;19.40;99.90;;;;;;5093009;28;20032;-70
2022/07/14 05:52:57;;;;;;;17.23;4.95;;;19.40;99.90;;;;;;5093178;28;20031;-70
2022/07/14 05:55:23;;;;;;;20.00;5.90;;;19.30;99.90;;;;;;5093068;28;20036;-70
2022/07/14 05:57:49;;;;;;;19.50;6.55;;;19.40;99.90;;;;;;5092721;28;20431;-70
2022/07/14 06:00:15;;;;;;;18.13;5.93;;;19.50;99.90;;;;;;5092136;28;20085;-70
2022/07/14 06:02:44;;;;;;;20.70;6.03;;;19.60;99.90;;;;;;5091795;28;20040;-69
2022/07/14 06:05:10;;;;;;;21.35;5.40;;;19.60;99.90;;;;;;5092978;28;20424;-70
2022/07/14 06:07:39;;;;;;;18.50;6.38;;;19.70;99.90;;;;;;5092666;28;20024;-70
2022/07/14 06:10:06;;;;;;;17.58;6.10;;;19.70;99.90;;;;;;5093075;28;20024;-70
2022/07/14 06:12:32;;;;;;;13.88;4.57;;;19.70;99.90;;;;;;5089806;28;20020;-70
2022/07/14 06:14:58;;;;;;;21.75;5.35;;;19.70;99.90;;;;;;5084277;28;20031;-69
2022/07/14 06:17:24;;;;;;;21.05;5.60;;;19.70;99.90;;;;;;5092449;28;20094;-70
2022/07/14 06:19:49;;;;;;;23.75;6.57;;;19.80;99.90;;;;;;5092553;28;20469;-70
2022/07/14 06:22:15;;;;;;;17.75;5.30;;;19.80;99.90;;;;;;5091965;28;20028;-70
2022/07/14 06:24:41;;;;;;;22.58;5.65;;;19.90;99.90;;;;;;5092868;28;20032;-70
2022/07/14 06:27:07;;;;;;;18.20;4.80;;;19.90;99.90;;;;;;5092487;28;20482;-70
2022/07/14 06:29:33;;;;;;;22.10;4.70;;;19.90;99.90;;;;;;5092842;28;20119;-69
2022/07/14 06:31:59;;;;;;;15.50;4.88;;;19.80;99.90;;;;;;5092753;28;20465;-70
2022/07/14 06:34:25;;;;;;;16.77;4.40;;;19.90;99.90;;;;;;5092941;28;20028;-70
2022/07/14 06:36:51;;;;;;;19.40;5.22;;;19.80;99.90;;;;;;5091833;28;20028;-70
2022/07/14 06:39:17;;;;;;;21.25;5.57;;;20.00;99.90;;;;;;5094820;28;20043;-70
2022/07/14 06:41:42;;;;;;;19.02;5.05;;;20.10;99.90;;;;;;5095361;28;20495;-70
2022/07/14 06:44:08;;;;;;;23.15;5.75;;;20.10;99.90;;;;;;5104278;28;20053;-70
2022/07/14 06:46:37;;;;;;;15.10;5.30;;;20.00;99.90;;;;;;5075886;28;20087;-70
2022/07/14 06:49:02;;;;;;;19.48;5.07;;;20.10;99.90;;;;;;5075558;28;20025;-70
2022/07/14 06:51:28;;;;;;;15.68;5.55;;;20.20;99.90;;;;;;5089006;28;20076;-70
2022/07/14 06:53:54;;;;;;;15.15;5.35;;;20.10;99.90;;;;;;5089231;28;20116;-70
2022/07/14 06:56:20;;;;;;;19.70;5.20;;;20.10;99.90;;;;;;5076175;28;20521;-70
2022/07/14 06:58:45;;;;;;;13.85;3.90;;;20.10;99.90;;;;;;5075149;28;20094;-70
2022/07/14 07:01:11;;;;;;;18.88;4.35;;;20.30;99.90;;;;;;5084539;28;20016;-70
2022/07/14 07:03:37;;;;;;;19.60;4.82;;;20.40;99.90;;;;;;5114970;28;20020;-69
2022/07/14 07:08:47;;;;;;;18.67;5.72;;;20.50;99.90;;;;;;5106325;28;20109;-70
2022/07/14 07:11:12;;;;;;;19.55;4.95;;;20.50;99.90;;;;;;5096305;28;20469;-71
2022/07/14 07:13:38;;;;;;;27.13;5.65;;;20.50;99.90;;;;;;5094431;28;20044;-70
2022/07/14 07:16:08;;;;;;;22.63;4.68;;;20.60;99.90;;;;;;5096152;28;20050;-71
2022/07/14 07:18:35;;;;;;;16.52;5.43;;;20.60;99.90;;;;;;5096022;28;20036;-71
2022/07/14 07:21:01;;;;;;;15.80;4.35;;;20.50;99.90;;;;;;5095323;28;20012;-70
2022/07/14 07:23:27;;;;;;;14.38;4.13;;;20.60;99.90;;;;;;5095669;28;20032;-71
2022/07/14 07:25:54;;;;;;;21.08;4.13;;;20.80;99.90;;;;;;5095734;28;20023;-71
2022/07/14 07:28:19;;;;;;;16.40;4.57;;;20.90;99.90;;;;;;5096046;28;20362;-71
2022/07/14 07:30:45;;;;;;;14.27;4.13;;;21.00;99.90;;;;;;5096008;28;20023;-70
2022/07/14 07:33:11;;;;;;;14.05;4.03;;;21.10;99.90;;;;;;5077676;28;20028;-69
2022/07/14 07:35:36;;;;;;;14.23;3.83;;;21.20;99.90;;;;;;5084798;28;20027;-70
2022/07/14 07:38:02;;;;;;;16.25;4.28;;;21.20;99.90;;;;;;5101707;28;20032;-70
2022/07/14 07:40:28;;;;;;;14.05;4.05;;;21.20;99.90;;;;;;5099916;28;20015;-71
2022/07/14 07:42:53;;;;;;;17.67;4.13;;;21.20;99.90;;;;;;5106557;28;20103;-71
2022/07/14 07:45:19;;;;;;;9.57;3.47;;;21.20;99.90;;;;;;5105877;28;20035;-71
2022/07/14 07:47:44;;;;;;;17.67;3.83;;;21.40;99.90;;;;;;5099358;27;20066;-71
2022/07/14 07:50:11;;;;;;;16.38;3.58;;;21.30;99.90;;;;;;5109913;28;20055;-70
2022/07/14 07:52:38;;;;;;;19.42;4.00;;;21.30;99.90;;;;;;5100294;28;20024;-70
2022/07/14 07:55:09;;;;;;;13.88;3.33;;;21.30;99.90;;;;;;5103105;28;20024;-70
2022/07/14 07:57:35;;;;;;;18.83;3.38;;;21.40;99.90;;;;;;5089793;28;20033;-71
2022/07/14 08:00:04;;;;;;;12.57;3.53;;;21.40;99.90;;;;;;5094423;28;20455;-71
2022/07/14 08:02:30;;;;;;;13.15;3.60;;;21.50;99.90;;;;;;5098958;28;20038;-70
2022/07/14 08:04:56;;;;;;;10.73;3.35;;;21.40;99.90;;;;;;5091159;28;20020;-70
2022/07/14 08:07:21;;;;;;;15.43;3.30;;;21.40;99.90;;;;;;5102398;28;20100;-70
2022/07/14 08:09:47;;;;;;;13.23;3.63;;;21.50;99.90;;;;;;5110093;28;20035;-70
2022/07/14 08:12:13;;;;;;;15.38;3.30;;;21.70;99.90;;;;;;5101302;28;20028;-70
2022/07/14 08:14:47;;;;;;;12.80;3.45;;;21.70;99.90;;;;;;5099134;28;20477;-71
2022/07/14 08:17:13;;;;;;;9.40;2.83;;;21.80;99.90;;;;;;5103393;27;20024;-70
2022/07/14 08:19:39;;;;;;;10.73;2.88;;;22.00;99.90;;;;;;5107224;28;20046;-71
2022/07/14 08:22:05;;;;;;;10.95;2.38;;;22.30;99.90;;;;;;5095711;28;20036;-71
2022/07/14 08:24:31;;;;;;;8.05;2.75;;;22.50;99.90;;;;;;5108261;28;20476;-71
2022/07/14 08:26:57;;;;;;;9.18;2.97;;;22.70;99.90;;;;;;5097625;28;20028;-71
2022/07/14 08:29:22;;;;;;;13.05;3.30;;;22.80;99.90;;;;;;5106145;28;20051;-70
2022/07/14 08:31:49;;;;;;;13.68;2.85;;;22.80;99.90;;;;;;5098141;28;20099;-71
2022/07/14 08:34:15;;;;;;;10.48;3.30;;;23.00;99.90;;;;;;5085496;28;20031;-71
2022/07/14 08:36:41;;;;;;;9.35;2.95;;;23.00;99.90;;;;;;5107135;28;20488;-72
2022/07/14 08:39:08;;;;;;;8.60;2.55;;;23.20;99.90;;;;;;5099205;28;20032;-71
2022/07/14 08:41:34;;;;;;;9.93;2.60;;;23.40;99.90;;;;;;5086731;28;20035;-71
2022/07/14 08:44:00;;;;;;;9.93;2.05;;;23.60;99.90;;;;;;5110266;28;20023;-71
2022/07/14 08:46:26;;;;;;;11.55;2.88;;;23.80;99.90;;;;;;5097722;28;20019;-71
2022/07/14 08:48:53;;;;;;;11.02;2.30;;;24.00;99.90;;;;;;5105431;28;20043;-71
2022/07/14 08:51:20;;;;;;;10.05;2.95;;;23.80;99.90;;;;;;5091371;28;20024;-71
2022/07/14 08:53:46;;;;;;;6.97;2.35;;;23.80;99.90;;;;;;5108798;28;20525;-71
2022/07/14 08:56:11;;;;;;;8.45;2.97;;;23.70;99.90;;;;;;5095734;28;20142;-71
2022/07/14 08:58:39;;;;;;;8.13;2.22;;;23.80;99.90;;;;;;5101106;28;20490;-71
2022/07/14 09:01:05;;;;;;;8.45;2.35;;;23.80;99.90;;;;;;5087932;28;20012;-71
2022/07/14 09:03:31;;;;;;;9.10;1.77;;;23.80;99.90;;;;;;5093406;28;20028;-70
2022/07/14 09:05:57;;;;;;;6.32;2.20;;;23.90;99.00;;;;;;5092936;28;20019;-70
2022/07/14 09:08:23;;;;;;;11.80;2.08;;;24.00;98.40;;;;;;5100596;28;20024;-71
2022/07/14 09:10:49;;;;;;;7.53;1.92;;;24.30;98.60;;;;;;5105411;28;20535;-71
2022/07/14 09:13:22;;;;;;;9.75;2.30;;;24.20;98.70;;;;;;5101075;28;20020;-71
2022/07/14 09:15:49;;;;;;;6.72;2.08;;;24.10;98.60;;;;;;5107625;28;20088;-71
2022/07/14 09:18:21;;;;;;;5.30;2.35;;;24.20;97.80;;;;;;5095089;28;20415;-71
2022/07/14 09:20:47;;;;;;;8.45;2.63;;;24.40;96.80;;;;;;5095626;28;20403;-71
2022/07/14 09:23:13;;;;;;;8.13;2.42;;;24.50;98.00;;;;;;5103790;28;20376;-71
2022/07/14 09:25:39;;;;;;;10.85;2.50;;;24.60;97.50;;;;;;5097710;28;20078;-70
2022/07/14 09:28:08;;;;;;;8.15;2.80;;;24.70;98.10;;;;;;5109221;28;20077;-71
2022/07/14 09:30:33;;;;;;;10.18;2.55;;;24.80;96.90;;;;;;5092517;28;20081;-70
2022/07/14 09:33:02;;;;;;;4.35;1.63;;;24.90;98.60;;;;;;5089713;28;20091;-71
2022/07/14 09:35:34;;;;;;;18.10;3.22;;;24.90;97.50;;;;;;5079383;28;20025;-71
2022/07/14 09:38:20;;;;;;;5.88;2.10;;;24.90;97.20;;;;;;5100930;28;20028;-71
2022/07/14 09:40:47;;;;;;;4.30;2.13;;;25.20;96.80;;;;;;5102819;28;20053;-71
2022/07/14 09:43:14;;;;;;;6.60;2.08;;;25.40;97.10;;;;;;5103559;28;20046;-71
2022/07/14 09:45:46;;;;;;;5.70;2.40;;;25.40;95.70;;;;;;5096551;28;20461;-71
2022/07/14 09:48:17;;;;;;;7.97;2.78;;;25.60;95.80;;;;;;5109219;28;20098;-71
2022/07/14 09:50:59;;;;;;;6.75;2.22;;;25.70;96.70;;;;;;5099296;28;20020;-71
2022/07/14 09:53:33;;;;;;;5.65;2.53;;;25.70;96.90;;;;;;5099788;28;20061;-71
2022/07/14 09:56:06;;;;;;;6.25;2.35;;;25.90;96.50;;;;;;5108209;28;20024;-71
2022/07/14 09:58:40;;;;;;;7.53;1.85;;;25.90;94.10;;;;;;5097403;28;20050;-71
2022/07/14 10:01:18;;;;;;;5.75;1.60;;;26.00;94.90;;;;;;5100084;28;20111;-71
2022/07/14 10:03:46;;;;;;;5.18;1.90;;;26.30;93.70;;;;;;5081493;28;20074;-72
2022/07/14 10:06:12;;;;;;;7.05;1.50;;;26.20;92.50;;;;;;5106796;28;20028;-70
2022/07/14 10:08:43;;;;;;;5.78;1.95;;;26.20;91.80;;;;;;5104277;28;20492;-71
2022/07/14 10:11:12;;;;;;;8.20;2.50;;;26.20;92.40;;;;;;5103231;28;20455;-71
2022/07/14 10:13:39;;;;;;;6.68;2.38;;;26.30;93.30;;;;;;5097013;28;20422;-71
2022/07/14 10:16:05;;;;;;;7.03;2.15;;;26.40;92.20;;;;;;5092314;28;20107;-71
2022/07/14 10:18:32;;;;;;;4.75;2.15;;;26.40;92.20;;;;;;5107192;28;20422;-71
2022/07/14 10:20:59;;;;;;;7.72;2.03;;;26.60;92.40;;;;;;5094658;28;20016;-70
2022/07/14 10:23:26;;;;;;;5.50;1.95;;;26.90;93.00;;;;;;5100482;28;20081;-71
2022/07/14 10:25:54;;;;;;;4.80;1.80;;;27.10;92.00;;;;;;5078659;28;20032;-72
2022/07/14 10:28:22;;;;;;;7.50;2.75;;;27.20;91.30;;;;;;5078570;28;20036;-72
2022/07/14 10:30:59;;;;;;;7.13;2.03;;;27.30;92.30;;;;;;5103083;28;20492;-71
2022/07/14 10:33:40;;;;;;;6.50;2.30;;;27.20;91.10;;;;;;5083804;28;20028;-71
2022/07/14 10:36:14;;;;;;;10.27;2.67;;;26.70;90.90;;;;;;5104153;28;20019;-71
2022/07/14 10:38:47;;;;;;;5.25;1.90;;;26.40;91.10;;;;;;5103218;28;20097;-72
2022/07/14 10:41:13;;;;;;;6.15;2.00;;;26.30;91.80;;;;;;5103093;28;20058;-71
2022/07/14 10:44:03;;;;;;;4.53;1.83;;;26.30;90.60;;;;;;5096896;28;20516;-71
2022/07/14 10:46:43;;;;;;;5.07;1.73;;;26.10;90.40;;;;;;5082828;28;20399;-71
2022/07/14 10:49:11;;;;;;;2.90;1.60;;;26.00;90.70;;;;;;5088510;28;20621;-71
2022/07/14 10:51:45;;;;;;;3.55;1.73;;;25.90;91.30;;;;;;5076543;28;20433;-72
2022/07/14 10:54:21;;;;;;;4.72;1.90;;;25.90;91.20;;;;;;5087037;28;20024;-72
2022/07/14 10:56:47;;;;;;;9.27;2.10;;;25.70;93.30;;;;;;5078610;28;20643;-71
2022/07/14 10:59:25;;;;;;;2.75;1.50;;;25.80;92.70;;;;;;5079763;28;20036;-71
2022/07/14 11:02:16;;;;;;;8.07;2.17;;;26.10;92.50;;;;;;5083792;28;20062;-72
2022/07/14 11:05:00;;;;;;;6.68;2.13;;;26.20;91.60;;;;;;5086761;28;20036;-72
2022/07/14 11:07:40;;;;;;;2.90;2.00;;;26.20;90.40;;;;;;5079976;28;20028;-72
2022/07/14 11:10:26;;;;;;;8.18;2.33;;;26.50;92.10;;;;;;5084229;28;20028;-71
2022/07/14 11:13:03;;;;;;;6.40;2.15;;;26.80;92.10;;;;;;5083801;28;20025;-72
2022/07/14 11:15:52;;;;;;;6.45;2.03;;;26.90;91.00;;;;;;5084170;28;20032;-72
2022/07/14 11:18:17;;;;;;;5.13;1.73;;;26.70;90.00;;;;;;5084055;28;20039;-71
2022/07/14 11:21:16;;;;;;;5.35;1.90;;;26.90;90.30;;;;;;5088634;28;20024;-72
2022/07/14 11:23:48;;;;;;;4.60;1.85;;;27.10;90.70;;;;;;5080251;28;20162;-72
2022/07/14 11:26:35;;;;;;;7.38;1.92;;;27.10;91.00;;;;;;5096867;28;20023;-71
2022/07/14 11:29:03;;;;;;;3.42;1.63;;;27.00;88.10;;;;;;5109774;28;20035;-71
2022/07/14 11:31:52;;;;;;;5.53;1.70;;;26.90;90.50;;;;;;5101355;28;20027;-70
2022/07/14 11:37:09;;;;;;;4.45;1.83;;;26.60;92.20;;;;;;5101151;28;20089;-71
2022/07/14 11:39:42;;;;;;;3.75;1.70;;;26.50;90.20;;;;;;5102489;28;20088;-72
2022/07/14 11:42:13;;;;;;;5.03;1.90;;;26.40;90.80;;;;;;5097481;28;20024;-72
2022/07/14 11:44:38;;;;;;;4.55;1.80;;;26.10;90.20;;;;;;5106602;28;20488;-74
2022/07/14 11:47:15;;;;;;;4.38;1.63;;;26.20;90.90;;;;;;5098679;28;20077;-72
2022/07/14 11:49:42;;;;;;;5.32;1.77;;;26.00;91.10;;;;;;5108700;28;20035;-72
2022/07/14 11:52:08;;;;;;;5.03;1.83;;;26.10;91.70;;;;;;5096942;28;20024;-72
2022/07/14 11:54:34;;;;;;;9.75;2.13;;;26.00;90.70;;;;;;5108189;28;20035;-72
2022/07/14 11:57:11;;;;;;;5.38;1.88;;;26.00;90.60;;;;;;5092608;28;20020;-72
2022/07/14 11:59:41;;;;;;;3.20;1.60;;;25.90;91.00;;;;;;5109212;28;20456;-72
2022/07/14 12:02:10;;;;;;;4.40;2.17;;;25.80;90.40;;;;;;5097957;28;20020;-72
2022/07/14 12:04:53;;;;;;;5.45;2.03;;;25.80;90.50;;;;;;5087590;28;20028;-72
2022/07/14 12:07:24;;;;;;;5.70;2.00;;;25.90;89.60;;;;;;5102747;27;20043;-73
2022/07/14 12:09:51;;;;;;;3.63;1.63;;;25.90;90.40;;;;;;5086700;28;20021;-73
2022/07/14 12:12:19;;;;;;;3.75;1.67;;;25.90;90.10;;;;;;5105774;28;20035;-72
2022/07/14 12:14:49;;;;;;;5.57;2.00;;;26.00;91.30;;;;;;5099701;28;20387;-72
2022/07/14 12:17:16;;;;;;;4.03;1.67;;;26.00;90.90;;;;;;5101907;28;20077;-72
2022/07/14 12:19:43;;;;;;;5.32;1.55;;;25.90;90.10;;;;;;5106804;28;20032;-71
2022/07/14 12:22:09;;;;;;;4.15;1.55;;;26.10;90.20;;;;;;5096710;28;20024;-69
2022/07/14 12:24:35;;;;;;;5.80;2.17;;;26.20;90.30;;;;;;5106999;28;20024;-73
2022/07/14 12:27:06;;;;;;;6.18;1.63;;;26.40;91.20;;;;;;5102882;28;20111;-72
2022/07/14 12:29:33;;;;;;;2.80;1.70;;;26.70;90.30;;;;;;5093027;28;20028;-72
2022/07/14 12:32:00;;;;;;;6.45;1.77;;;26.80;90.00;;;;;;5110324;28;20032;-72
2022/07/14 12:34:27;;;;;;;6.97;2.03;;;27.00;90.70;;;;;;5084181;28;20036;-72
2022/07/14 12:37:01;;;;;;;6.35;2.20;;;27.00;90.40;;;;;;5098167;28;20035;-73
2022/07/14 12:39:29;;;;;;;6.78;1.40;;;27.10;91.00;;;;;;5105991;28;20044;-72
2022/07/14 12:41:55;;;;;;;5.05;2.03;;;27.10;89.90;;;;;;5096219;28;20020;-72
2022/07/14 12:44:21;;;;;;;6.15;1.70;;;26.90;90.30;;;;;;5108884;28;20072;-72
2022/07/14 12:47:05;;;;;;;3.63;1.50;;;27.00;90.70;;;;;;5088029;28;20110;-71
2022/07/14 12:49:44;;;;;;;7.57;1.80;;;27.30;90.80;;;;;;5099251;28;20473;-72
2022/07/14 12:52:10;;;;;;;3.60;1.52;;;27.30;87.60;;;;;;5095966;28;20361;-72
2022/07/14 12:54:37;;;;;;;3.47;1.77;;;27.30;87.70;;;;;;5102448;28;20028;-71